createdAt,value
2017-05-29T00:00:05.726Z,7.56
2017-05-29T00:02:32.414Z,7.60
2017-05-29T00:04:59.095Z,7.96
2017-05-29T00:07:26.095Z,7.86
2017-05-29T00:09:52.783Z,7.50
2017-05-29T00:12:19.487Z,7.02
2017-05-29T00:14:46.186Z,8.00
2017-05-29T00:17:12.864Z,7.84
2017-05-29T00:19:39.560Z,7.10
2017-05-29T00:22:06.267Z,7.82
2017-05-29T00:24:32.963Z,8.06
2017-05-29T00:26:59.670Z,7.32
2017-05-29T00:29:26.367Z,7.62
2017-05-29T00:31:53.071Z,7.64
2017-05-29T00:34:19.787Z,7.22
2017-05-29T00:36:46.469Z,8.60
2017-05-29T00:39:13.176Z,8.32
2017-05-29T00:41:39.877Z,8.76
2017-05-29T00:44:06.555Z,8.12
2017-05-29T00:46:33.269Z,8.68
2017-05-29T00:49:00.060Z,9.22
2017-05-29T00:51:26.739Z,8.14
2017-05-29T00:53:53.436Z,8.10
2017-05-29T00:56:20.123Z,7.40
2017-05-29T00:58:46.076Z,9.06
2017-05-29T01:01:12.759Z,8.54
2017-05-29T01:03:39.710Z,8.92
2017-05-29T01:06:05.682Z,9.48
2017-05-29T01:08:32.367Z,8.70
2017-05-29T01:10:59.075Z,9.34
2017-05-29T01:13:25.780Z,8.78
2017-05-29T01:15:52.476Z,8.52
2017-05-29T01:18:19.154Z,8.24
2017-05-29T01:20:45.863Z,8.92
2017-05-29T01:23:12.535Z,8.68
2017-05-29T01:25:39.271Z,8.92
2017-05-29T01:28:05.980Z,8.56
2017-05-29T01:30:32.675Z,9.00
2017-05-29T01:32:59.426Z,8.32
2017-05-29T01:35:26.127Z,9.66
2017-05-29T01:37:52.798Z,9.88
2017-05-29T01:40:19.495Z,9.42
2017-05-29T01:42:46.175Z,9.70
2017-05-29T01:45:12.863Z,10.32
2017-05-29T01:47:39.559Z,10.12
2017-05-29T01:50:06.234Z,10.28
2017-05-29T01:52:32.914Z,10.22
2017-05-29T01:54:59.623Z,11.60
2017-05-29T01:57:26.336Z,9.90
2017-05-29T01:59:53.023Z,10.24
2017-05-29T02:02:19.714Z,11.02
2017-05-29T02:04:46.382Z,10.78
2017-05-29T02:07:13.092Z,10.68
2017-05-29T02:09:39.767Z,10.48
2017-05-29T02:12:06.498Z,10.50
2017-05-29T02:14:33.190Z,10.96
2017-05-29T02:16:59.138Z,11.20
2017-05-29T02:19:25.834Z,10.74
2017-05-29T02:21:52.564Z,10.92
2017-05-29T02:24:19.242Z,10.22
2017-05-29T02:26:45.955Z,10.76
2017-05-29T02:29:12.656Z,12.56
2017-05-29T02:31:39.334Z,11.00
2017-05-29T02:34:06.012Z,11.36
2017-05-29T02:36:32.691Z,11.42
2017-05-29T02:38:59.448Z,11.56
2017-05-29T02:41:26.134Z,12.42
2017-05-29T02:43:52.814Z,11.62
2017-05-29T02:46:19.531Z,11.78
2017-05-29T02:48:46.216Z,11.64
2017-05-29T02:51:12.896Z,11.92
2017-05-29T02:53:39.603Z,12.62
2017-05-29T02:56:06.308Z,11.56
2017-05-29T02:58:32.992Z,11.70
2017-05-29T03:00:59.680Z,12.30
2017-05-29T03:03:26.355Z,12.58
2017-05-29T03:05:53.044Z,12.12
2017-05-29T03:08:19.755Z,13.62
2017-05-29T03:10:46.431Z,14.12
2017-05-29T03:13:13.112Z,13.22
2017-05-29T03:15:39.812Z,11.84
2017-05-29T03:18:06.515Z,13.10
2017-05-29T03:20:33.190Z,13.62
2017-05-29T03:22:59.999Z,13.28
2017-05-29T03:25:26.679Z,13.98
2017-05-29T03:27:53.348Z,14.34
2017-05-29T03:30:20.062Z,14.90
2017-05-29T03:32:46.735Z,15.20
2017-05-29T03:35:13.425Z,13.50
2017-05-29T03:37:40.118Z,15.24
2017-05-29T03:40:06.808Z,13.58
2017-05-29T03:42:33.482Z,15.20
2017-05-29T03:45:00.162Z,13.32
2017-05-29T03:47:26.839Z,13.24
2017-05-29T03:49:53.547Z,14.42
2017-05-29T03:52:20.230Z,15.46
2017-05-29T03:54:46.901Z,14.18
2017-05-29T03:57:13.602Z,14.10
2017-05-29T03:59:40.322Z,15.06
2017-05-29T04:02:06.665Z,15.28
2017-05-29T04:04:33.358Z,14.60
2017-05-29T04:07:00.050Z,14.32
2017-05-29T04:09:25.986Z,14.70
2017-05-29T04:11:52.666Z,14.90
2017-05-29T04:14:19.343Z,13.86
2017-05-29T04:16:46.033Z,14.32
2017-05-29T04:19:12.742Z,13.26
2017-05-29T04:21:39.443Z,14.06
2017-05-29T04:24:08.577Z,14.72
2017-05-29T04:26:35.254Z,14.00
2017-05-29T04:29:01.955Z,13.80
2017-05-29T04:31:28.630Z,13.20
2017-05-29T04:33:55.332Z,14.06
2017-05-29T04:36:22.034Z,14.70
2017-05-29T04:38:48.714Z,13.80
2017-05-29T04:41:15.400Z,12.84
2017-05-29T04:43:42.118Z,13.12
2017-05-29T04:46:08.805Z,13.46
2017-05-29T04:48:35.524Z,13.20
2017-05-29T04:51:02.217Z,12.86
2017-05-29T04:53:28.920Z,12.62
2017-05-29T04:55:55.627Z,12.12
2017-05-29T04:58:22.302Z,12.26
2017-05-29T05:00:48.983Z,12.22
2017-05-29T05:03:16.048Z,12.60
2017-05-29T05:05:42.731Z,12.14
2017-05-29T05:08:09.399Z,11.80
2017-05-29T05:10:36.107Z,13.08
2017-05-29T05:13:02.801Z,12.16
2017-05-29T05:15:29.486Z,13.12
2017-05-29T05:17:56.344Z,13.40
2017-05-29T05:20:23.034Z,12.78
2017-05-29T05:22:49.706Z,12.48
2017-05-29T05:25:16.412Z,13.62
2017-05-29T05:27:43.100Z,12.08
2017-05-29T05:30:09.927Z,12.96
2017-05-29T05:32:36.632Z,12.52
2017-05-29T05:35:03.586Z,11.42
2017-05-29T05:37:30.277Z,13.18
2017-05-29T05:39:56.975Z,11.72
2017-05-29T05:42:23.654Z,12.64
2017-05-29T05:44:50.372Z,12.84
2017-05-29T05:47:17.092Z,12.34
2017-05-29T05:49:43.791Z,13.38
2017-05-29T05:52:11.538Z,14.56
2017-05-29T05:54:38.231Z,16.02
2017-05-29T05:57:04.905Z,14.60
2017-05-29T05:59:31.610Z,13.66
2017-05-29T06:01:58.295Z,13.56
2017-05-29T06:04:25.030Z,14.94
2017-05-29T06:06:51.715Z,15.32
2017-05-29T06:09:18.387Z,13.42
2017-05-29T06:11:45.099Z,14.30
2017-05-29T06:14:11.783Z,14.86
2017-05-29T06:16:38.459Z,14.62
2017-05-29T06:19:05.221Z,13.16
2017-05-29T06:21:31.939Z,14.12
2017-05-29T06:23:58.643Z,14.82
2017-05-29T06:26:25.324Z,13.26
2017-05-29T06:28:52.011Z,12.66
2017-05-29T06:31:18.698Z,12.84
2017-05-29T06:33:45.384Z,13.72
2017-05-29T06:36:12.070Z,11.94
2017-05-29T06:38:38.771Z,13.82
2017-05-29T06:41:05.454Z,12.48
2017-05-29T06:43:32.135Z,13.98
2017-05-29T06:45:58.844Z,12.76
2017-05-29T06:48:25.529Z,13.78
2017-05-29T06:50:52.228Z,12.66
2017-05-29T06:53:18.942Z,13.62
2017-05-29T06:55:45.631Z,12.62
2017-05-29T06:58:12.315Z,12.58
2017-05-29T07:00:39.016Z,13.00
2017-05-29T07:03:04.950Z,14.14
2017-05-29T07:05:31.655Z,13.20
2017-05-29T07:07:58.346Z,14.44
2017-05-29T07:10:25.044Z,14.20
2017-05-29T07:12:51.750Z,14.00
2017-05-29T07:15:18.427Z,13.04
2017-05-29T07:17:45.135Z,12.84
2017-05-29T07:20:11.811Z,12.48
2017-05-29T07:22:38.495Z,11.76
2017-05-29T07:25:04.701Z,12.74
2017-05-29T07:27:31.378Z,11.58
2017-05-29T07:29:58.126Z,11.24
2017-05-29T07:32:24.842Z,11.84
2017-05-29T07:34:51.531Z,11.56
2017-05-29T07:37:18.512Z,12.60
2017-05-29T07:39:45.204Z,10.66
2017-05-29T07:42:12.067Z,12.08
2017-05-29T07:44:39.100Z,11.42
2017-05-29T07:47:05.778Z,11.48
2017-05-29T07:49:32.491Z,11.80
2017-05-29T07:51:59.168Z,10.76
2017-05-29T07:54:25.933Z,14.10
2017-05-29T07:56:52.630Z,12.32
2017-05-29T07:59:19.321Z,12.46
2017-05-29T08:01:46.047Z,15.94
2017-05-29T08:04:12.734Z,15.58
2017-05-29T08:06:39.416Z,22.16
2017-05-29T08:09:06.123Z,18.74
2017-05-29T08:11:32.802Z,19.58
2017-05-29T08:13:59.830Z,19.08
2017-05-29T08:16:26.526Z,14.88
2017-05-29T08:18:53.207Z,14.40
2017-05-29T08:21:19.874Z,15.14
2017-05-29T08:23:46.583Z,13.52
2017-05-29T08:26:13.267Z,12.84
2017-05-29T08:28:40.016Z,11.72
2017-05-29T08:31:06.686Z,9.72
2017-05-29T08:33:33.358Z,11.70
2017-05-29T08:36:00.055Z,12.00
2017-05-29T08:38:26.744Z,11.82
2017-05-29T08:40:53.424Z,12.10
2017-05-29T08:43:20.222Z,10.72
2017-05-29T08:45:46.902Z,12.82
2017-05-29T08:48:13.586Z,12.38
2017-05-29T08:50:40.288Z,11.92
2017-05-29T08:53:06.992Z,11.40
2017-05-29T08:55:33.699Z,13.80
2017-05-29T08:58:00.374Z,13.50
2017-05-29T09:00:27.059Z,13.24
2017-05-29T09:02:53.770Z,14.36
2017-05-29T09:05:20.454Z,13.24
2017-05-29T09:07:47.138Z,13.70
2017-05-29T09:10:14.117Z,14.58
2017-05-29T09:12:40.824Z,12.80
2017-05-29T09:15:07.530Z,11.98
2017-05-29T09:17:34.218Z,13.50
2017-05-29T09:20:00.923Z,14.16
2017-05-29T09:22:27.631Z,13.06
2017-05-29T09:24:54.325Z,12.42
2017-05-29T09:27:21.022Z,13.78
2017-05-29T09:29:47.764Z,12.50
2017-05-29T09:32:14.450Z,13.38
2017-05-29T09:34:41.174Z,12.00
2017-05-29T09:37:07.865Z,13.46
2017-05-29T09:39:34.563Z,13.40
2017-05-29T09:42:01.275Z,12.32
2017-05-29T09:44:27.966Z,12.94
2017-05-29T09:46:54.648Z,12.86
2017-05-29T09:49:21.355Z,15.00
2017-05-29T09:51:48.038Z,13.86
2017-05-29T09:54:14.727Z,13.54
2017-05-29T09:56:41.448Z,14.70
2017-05-29T09:59:08.132Z,12.52
2017-05-29T10:01:34.811Z,13.82
2017-05-29T10:04:01.528Z,13.60
2017-05-29T10:06:28.219Z,15.46
2017-05-29T10:08:54.900Z,12.18
2017-05-29T10:11:22.290Z,11.88
2017-05-29T10:13:48.986Z,14.32
2017-05-29T10:16:15.680Z,11.74
2017-05-29T10:18:42.393Z,14.42
2017-05-29T10:21:09.091Z,12.04
2017-05-29T10:23:35.808Z,13.22
2017-05-29T10:26:02.507Z,13.38
2017-05-29T10:28:29.200Z,14.26
2017-05-29T10:30:55.879Z,14.32
2017-05-29T10:33:24.598Z,13.60
2017-05-29T10:35:51.702Z,13.72
2017-05-29T10:38:18.423Z,15.72
2017-05-29T10:40:45.158Z,14.60
2017-05-29T10:43:11.875Z,14.80
2017-05-29T10:45:38.586Z,13.20
2017-05-29T10:48:05.298Z,12.16
2017-05-29T10:50:32.007Z,11.88
2017-05-29T10:52:58.698Z,11.04
2017-05-29T10:55:26.719Z,11.70
2017-05-29T10:57:53.467Z,10.98
2017-05-29T11:00:20.164Z,10.00
2017-05-29T11:02:46.846Z,13.36
2017-05-29T11:05:13.538Z,12.60
2017-05-29T11:07:40.230Z,11.64
2017-05-29T11:10:06.952Z,12.80
2017-05-29T11:12:34.947Z,10.82
2017-05-29T11:15:01.592Z,12.04
2017-05-29T11:17:28.322Z,10.84
2017-05-29T11:19:55.003Z,10.18
2017-05-29T11:22:21.720Z,8.68
2017-05-29T11:24:48.407Z,10.22
2017-05-29T11:27:15.083Z,10.30
2017-05-29T11:29:42.134Z,8.74
2017-05-29T11:32:08.824Z,9.80
2017-05-29T11:34:35.516Z,6.86
2017-05-29T11:37:02.222Z,7.66
2017-05-29T11:39:28.903Z,7.24
2017-05-29T11:41:55.583Z,8.02
2017-05-29T11:44:22.282Z,7.80
2017-05-29T11:46:48.994Z,7.14
2017-05-29T11:49:15.671Z,6.44
2017-05-29T11:51:42.918Z,6.00
2017-05-29T11:54:09.629Z,5.90
2017-05-29T11:56:36.320Z,5.96
2017-05-29T11:59:03.012Z,5.34
2017-05-29T12:01:29.704Z,5.64
2017-05-29T12:03:56.442Z,5.88
2017-05-29T12:06:23.118Z,5.08
2017-05-29T12:08:50.070Z,4.78
2017-05-29T12:11:16.774Z,4.60
2017-05-29T12:13:43.442Z,5.10
2017-05-29T12:16:10.126Z,4.82
2017-05-29T12:18:36.834Z,6.06
2017-05-29T12:21:03.507Z,5.00
2017-05-29T12:23:30.198Z,4.48
2017-05-29T12:25:56.882Z,4.64
2017-05-29T12:28:23.562Z,5.58
2017-05-29T12:30:50.266Z,5.62
2017-05-29T12:33:16.952Z,5.96
2017-05-29T12:35:43.638Z,5.94
2017-05-29T12:38:10.379Z,5.52
2017-05-29T12:40:37.060Z,4.46
2017-05-29T12:43:03.750Z,4.92
2017-05-29T12:45:30.434Z,4.66
2017-05-29T12:47:57.114Z,5.64
2017-05-29T12:50:23.799Z,4.82
2017-05-29T12:52:50.486Z,5.10
2017-05-29T12:55:17.190Z,5.08
2017-05-29T12:57:43.870Z,5.16
2017-05-29T13:00:10.599Z,6.06
2017-05-29T13:02:37.295Z,5.12
2017-05-29T13:05:03.983Z,4.38
2017-05-29T13:07:30.687Z,5.06
2017-05-29T13:09:57.366Z,5.40
2017-05-29T13:12:24.055Z,4.82
2017-05-29T13:14:50.754Z,5.08
2017-05-29T13:17:17.435Z,5.02
2017-05-29T13:19:44.136Z,5.36
2017-05-29T13:22:10.827Z,5.52
2017-05-29T13:24:37.704Z,5.72
2017-05-29T13:27:04.395Z,6.02
2017-05-29T13:29:31.075Z,5.82
2017-05-29T13:31:57.764Z,6.58
2017-05-29T13:34:24.450Z,6.50
2017-05-29T13:36:51.130Z,6.70
2017-05-29T13:39:17.839Z,7.02
2017-05-29T13:41:44.514Z,7.96
2017-05-29T13:44:11.190Z,7.70
2017-05-29T13:46:37.870Z,7.20
2017-05-29T13:49:04.923Z,6.34
2017-05-29T13:51:32.962Z,6.56
2017-05-29T13:53:59.910Z,8.00
2017-05-29T13:56:26.623Z,9.02
2017-05-29T13:58:53.298Z,7.84
2017-05-29T14:01:20.908Z,7.38
2017-05-29T14:03:47.651Z,8.22
2017-05-29T14:06:17.478Z,8.12
2017-05-29T14:08:48.758Z,7.58
2017-05-29T14:11:18.133Z,8.24
2017-05-29T14:13:45.372Z,8.32
2017-05-29T14:16:11.468Z,9.00
2017-05-29T14:18:38.146Z,7.68
2017-05-29T14:21:04.827Z,8.94
2017-05-29T14:23:31.507Z,8.40
2017-05-29T14:25:58.210Z,8.00
2017-05-29T14:28:24.893Z,7.90
2017-05-29T14:30:51.570Z,7.56
2017-05-29T14:33:18.274Z,8.20
2017-05-29T14:35:44.950Z,8.30
2017-05-29T14:38:11.642Z,8.28
2017-05-29T14:40:38.336Z,7.88
2017-05-29T14:43:05.028Z,8.40
2017-05-29T14:45:31.763Z,8.38
2017-05-29T14:47:58.460Z,8.82
2017-05-29T14:50:25.161Z,8.62
2017-05-29T14:52:51.892Z,8.42
2017-05-29T14:55:18.587Z,9.14
2017-05-29T14:57:45.280Z,9.58
2017-05-29T15:00:12.276Z,8.62
2017-05-29T15:02:38.964Z,8.66
2017-05-29T15:05:05.646Z,8.96
2017-05-29T15:07:32.355Z,9.08
2017-05-29T15:09:59.045Z,9.68
2017-05-29T15:12:25.722Z,9.46
2017-05-29T15:14:52.426Z,9.40
2017-05-29T15:17:19.124Z,8.94
2017-05-29T15:19:45.823Z,8.96
2017-05-29T15:22:12.511Z,9.48
2017-05-29T15:24:39.195Z,9.36
2017-05-29T15:27:05.900Z,9.98
2017-05-29T15:29:32.618Z,9.18
2017-05-29T15:31:59.304Z,9.74
2017-05-29T15:34:26.021Z,9.82
2017-05-29T15:36:52.703Z,10.32
2017-05-29T15:39:19.408Z,9.12
2017-05-29T15:41:46.150Z,8.88
2017-05-29T15:44:12.835Z,9.82
2017-05-29T15:46:39.570Z,9.38
2017-05-29T15:49:06.286Z,9.78
2017-05-29T15:51:32.979Z,9.36
2017-05-29T15:53:59.690Z,9.34
2017-05-29T15:56:26.380Z,9.22
2017-05-29T15:58:53.090Z,9.52
2017-05-29T16:01:19.788Z,9.78
2017-05-29T16:03:46.471Z,9.10
2017-05-29T16:06:13.155Z,9.26
2017-05-29T16:08:39.858Z,9.64
2017-05-29T16:11:06.556Z,9.78
2017-05-29T16:13:33.271Z,10.32
2017-05-29T16:15:59.967Z,9.10
2017-05-29T16:18:26.651Z,9.78
2017-05-29T16:20:53.404Z,9.50
2017-05-29T16:23:20.085Z,8.42
2017-05-29T16:25:46.762Z,10.02
2017-05-29T16:28:13.460Z,10.32
2017-05-29T16:30:40.135Z,9.06
2017-05-29T16:33:06.841Z,8.40
2017-05-29T16:35:33.518Z,8.76
2017-05-29T16:38:00.202Z,8.96
2017-05-29T16:40:26.918Z,9.32
2017-05-29T16:42:53.597Z,9.90
2017-05-29T16:45:20.284Z,9.32
2017-05-29T16:47:46.990Z,9.98
2017-05-29T16:50:13.696Z,9.00
2017-05-29T16:52:40.381Z,10.02
2017-05-29T16:55:07.090Z,9.42
2017-05-29T16:57:33.776Z,8.92
2017-05-29T17:00:00.491Z,9.20
2017-05-29T17:02:27.186Z,9.68
2017-05-29T17:04:53.866Z,9.58
2017-05-29T17:07:20.556Z,10.02
2017-05-29T17:09:47.258Z,9.88
2017-05-29T17:12:13.970Z,9.22
2017-05-29T17:14:40.811Z,9.30
2017-05-29T17:17:07.491Z,8.78
2017-05-29T17:19:34.200Z,9.48
2017-05-29T17:22:00.914Z,9.32
2017-05-29T17:24:27.594Z,8.82
2017-05-29T17:26:54.319Z,9.48
2017-05-29T17:29:21.015Z,10.40
2017-05-29T17:31:47.716Z,9.78
2017-05-29T17:34:14.539Z,9.78
2017-05-29T17:36:41.233Z,11.22
2017-05-29T17:39:07.914Z,13.98
2017-05-29T17:41:35.635Z,41.14
2017-05-29T17:44:02.330Z,13.02
2017-05-29T17:46:29.027Z,24.10
2017-05-29T17:48:55.724Z,27.00
2017-05-29T17:51:22.459Z,28.36
2017-05-29T17:53:49.191Z,16.24
2017-05-29T17:56:15.874Z,16.00
2017-05-29T17:58:42.569Z,12.64
2017-05-29T18:01:09.299Z,14.80
2017-05-29T18:03:36.938Z,15.96
2017-05-29T18:06:03.657Z,14.30
2017-05-29T18:08:30.345Z,20.30
2017-05-29T18:10:57.032Z,15.80
2017-05-29T18:13:23.728Z,16.48
2017-05-29T18:15:50.443Z,14.72
2017-05-29T18:18:17.155Z,16.12
2017-05-29T18:20:43.868Z,13.96
2017-05-29T18:29:03.356Z,14.54
2017-05-29T18:31:30.068Z,13.64
2017-05-29T18:33:56.776Z,13.84
2017-05-29T18:36:23.492Z,11.70
2017-05-29T18:38:49.552Z,12.24
2017-05-29T18:41:16.257Z,12.52
2017-05-29T18:43:44.038Z,13.10
2017-05-29T18:46:10.879Z,12.60
2017-05-29T18:48:37.848Z,13.00
2017-05-29T18:51:04.569Z,13.86
2017-05-29T18:53:31.386Z,12.64
2017-05-29T18:55:58.290Z,12.06
2017-05-29T18:58:25.030Z,12.12
2017-05-29T19:00:51.848Z,12.40
2017-05-29T19:03:18.577Z,12.48
2017-05-29T19:05:45.468Z,12.28
2017-05-29T19:08:13.484Z,12.36
2017-05-29T19:10:40.462Z,13.24
2017-05-29T19:13:07.185Z,12.96
2017-05-29T19:15:33.893Z,12.98
2017-05-29T19:18:00.604Z,12.64
2017-05-29T19:20:27.417Z,13.12
2017-05-29T19:22:54.139Z,12.94
2017-05-29T19:25:20.848Z,12.92
2017-05-29T19:27:47.673Z,14.64
2017-05-29T19:30:14.389Z,13.62
2017-05-29T19:32:41.080Z,13.20
2017-05-29T19:35:07.907Z,14.64
2017-05-29T19:37:35.510Z,15.54
2017-05-29T19:40:02.245Z,14.20
2017-05-29T19:42:28.981Z,13.60
2017-05-29T19:44:55.681Z,13.78
2017-05-29T19:47:23.350Z,15.02
2017-05-29T19:49:50.132Z,14.88
2017-05-29T19:52:16.937Z,13.08
2017-05-29T19:54:44.529Z,11.72
2017-05-29T19:57:11.251Z,11.50
2017-05-29T19:59:38.457Z,7.94
2017-05-29T20:02:05.201Z,6.22
2017-05-29T20:04:31.918Z,5.62
2017-05-29T20:06:58.637Z,5.32
2017-05-29T20:09:24.673Z,3.60
2017-05-29T20:11:51.392Z,4.94
2017-05-29T20:14:17.379Z,4.80
2017-05-29T20:16:44.106Z,5.68
2017-05-29T20:19:10.817Z,7.60
2017-05-29T20:21:37.545Z,7.62
2017-05-29T20:24:04.246Z,8.20
2017-05-29T20:26:30.960Z,7.82
2017-05-29T20:28:57.684Z,9.30
2017-05-29T20:31:23.658Z,10.38
2017-05-29T20:33:50.364Z,11.32
2017-05-29T20:36:17.147Z,12.18
2017-05-29T20:38:43.852Z,12.94
2017-05-29T20:41:10.560Z,12.80
2017-05-29T20:43:37.301Z,13.42
2017-05-29T20:46:04.011Z,12.70
2017-05-29T20:48:31.125Z,13.54
2017-05-29T20:50:57.887Z,13.84
2017-05-29T20:53:24.693Z,13.16
2017-05-29T20:55:51.437Z,12.72
2017-05-29T20:58:18.204Z,12.86
2017-05-29T21:00:44.941Z,13.70
2017-05-29T21:03:11.736Z,14.88
2017-05-29T21:05:38.806Z,13.66
2017-05-29T21:08:05.554Z,13.28
2017-05-29T21:10:32.314Z,13.94
2017-05-29T21:12:59.028Z,13.52
2017-05-29T21:15:25.020Z,12.66
2017-05-29T21:17:51.762Z,13.56
2017-05-29T21:20:18.485Z,12.24
2017-05-29T21:22:45.225Z,14.00
2017-05-29T21:25:11.969Z,13.40
2017-05-29T21:27:38.696Z,13.40
2017-05-29T21:30:05.446Z,13.30
2017-05-29T21:32:32.200Z,13.76
2017-05-29T21:34:58.932Z,13.82
2017-05-29T21:37:25.725Z,12.96
2017-05-29T21:39:52.476Z,13.38
2017-05-29T21:42:19.268Z,14.86
2017-05-29T21:44:45.984Z,15.66
2017-05-29T21:47:13.461Z,15.72
2017-05-29T21:49:40.378Z,15.34
2017-05-29T21:52:07.114Z,16.40
2017-05-29T21:54:33.853Z,16.38
2017-05-29T21:57:00.593Z,15.80
2017-05-29T21:59:27.420Z,16.60
2017-05-29T22:01:54.136Z,15.84
2017-05-29T22:04:20.859Z,15.08
2017-05-29T22:06:47.612Z,15.30
2017-05-29T22:09:14.346Z,14.92
2017-05-29T22:11:41.401Z,14.36
2017-05-29T22:14:08.120Z,15.10
2017-05-29T22:16:34.847Z,15.64
2017-05-29T22:19:01.576Z,14.12
2017-05-29T22:21:28.293Z,13.90
2017-05-29T22:23:54.293Z,13.32
2017-05-29T22:26:21.017Z,14.18
2017-05-29T22:28:47.756Z,14.56
2017-05-29T22:31:14.500Z,13.72
2017-05-29T22:33:41.224Z,13.50
2017-05-29T22:36:07.207Z,13.34
2017-05-29T22:38:33.941Z,12.64
2017-05-29T22:41:00.664Z,13.68
2017-05-29T22:43:27.392Z,13.12
2017-05-29T22:45:54.142Z,13.62
2017-05-29T22:48:20.145Z,13.88
2017-05-29T22:50:46.878Z,14.38
2017-05-29T22:53:13.633Z,13.58
2017-05-29T22:55:40.361Z,14.14
2017-05-29T22:58:07.284Z,12.98
2017-05-29T23:00:34.004Z,14.08
2017-05-29T23:03:00.716Z,14.48
2017-05-29T23:05:27.465Z,14.00
2017-05-29T23:07:54.186Z,13.90
2017-05-29T23:10:21.156Z,13.36
2017-05-29T23:12:47.884Z,14.30
2017-05-29T23:15:13.854Z,13.58
2017-05-29T23:17:40.622Z,13.58
2017-05-29T23:20:07.432Z,14.50
2017-05-29T23:22:34.161Z,15.04
2017-05-29T23:25:00.496Z,14.10
2017-05-29T23:27:27.205Z,14.66
2017-05-29T23:29:53.908Z,15.20
2017-05-29T23:32:20.624Z,16.40
2017-05-29T23:34:46.589Z,16.06
2017-05-29T23:37:13.326Z,15.22
2017-05-29T23:39:40.035Z,16.18
2017-05-29T23:42:06.743Z,16.28
2017-05-29T23:44:33.544Z,16.14
2017-05-29T23:47:00.252Z,16.34
2017-05-29T23:49:26.988Z,17.32
2017-05-29T23:51:53.697Z,17.50
2017-05-29T23:54:20.417Z,16.62
2017-05-29T23:56:47.273Z,16.48
2017-05-29T23:59:13.999Z,18.04
